sensor_id;sensor_type;location;lat;lon;timestamp;P1;durP1;ratioP1;P2;durP2;ratioP2
297;SDS011;133;49.626;9.680;2023-02-01T00:01:26;6.53;;;5.70;;
297;SDS011;133;49.626;9.680;2023-02-01T00:03:52;6.60;;;6.20;;
297;SDS011;133;49.626;9.680;2023-02-01T00:06:17;6.17;;;5.87;;
297;SDS011;133;49.626;9.680;2023-02-01T00:08:43;7.27;;;5.80;;
297;SDS011;133;49.626;9.680;2023-02-01T00:11:10;10.80;;;6.13;;
297;SDS011;133;49.626;9.680;2023-02-01T00:13:37;6.53;;;6.13;;
297;SDS011;133;49.626;9.680;2023-02-01T00:16:05;8.10;;;6.07;;
297;SDS011;133;49.626;9.680;2023-02-01T00:18:32;10.53;;;6.10;;
297;SDS011;133;49.626;9.680;2023-02-01T00:20:58;8.93;;;6.67;;
297;SDS011;133;49.626;9.680;2023-02-01T00:23:24;6.90;;;5.80;;
297;SDS011;133;49.626;9.680;2023-02-01T00:25:50;9.07;;;6.60;;
297;SDS011;133;49.626;9.680;2023-02-01T00:28:15;11.37;;;6.10;;
297;SDS011;133;49.626;9.680;2023-02-01T00:30:41;6.60;;;6.13;;
297;SDS011;133;49.626;9.680;2023-02-01T00:33:06;9.23;;;6.27;;
297;SDS011;133;49.626;9.680;2023-02-01T00:35:35;8.20;;;6.20;;
297;SDS011;133;49.626;9.680;2023-02-01T00:38:01;6.67;;;6.07;;
297;SDS011;133;49.626;9.680;2023-02-01T00:40:27;6.17;;;5.63;;
297;SDS011;133;49.626;9.680;2023-02-01T00:42:53;9.97;;;6.77;;
297;SDS011;133;49.626;9.680;2023-02-01T00:45:19;9.30;;;6.90;;
297;SDS011;133;49.626;9.680;2023-02-01T00:47:45;8.27;;;6.23;;
297;SDS011;133;49.626;9.680;2023-02-01T00:50:10;8.00;;;6.70;;
297;SDS011;133;49.626;9.680;2023-02-01T00:52:36;8.50;;;6.00;;
297;SDS011;133;49.626;9.680;2023-02-01T00:55:02;7.73;;;7.30;;
297;SDS011;133;49.626;9.680;2023-02-01T00:57:27;9.70;;;6.10;;
297;SDS011;133;49.626;9.680;2023-02-01T00:59:53;7.23;;;6.43;;
297;SDS011;133;49.626;9.680;2023-02-01T01:02:19;8.57;;;7.07;;
297;SDS011;133;49.626;9.680;2023-02-01T01:04:44;10.80;;;6.60;;
297;SDS011;133;49.626;9.680;2023-02-01T01:07:10;7.73;;;6.30;;
297;SDS011;133;49.626;9.680;2023-02-01T01:09:36;8.50;;;6.40;;
297;SDS011;133;49.626;9.680;2023-02-01T01:12:01;8.03;;;6.43;;
297;SDS011;133;49.626;9.680;2023-02-01T01:14:28;7.17;;;6.33;;
297;SDS011;133;49.626;9.680;2023-02-01T01:16:54;6.90;;;6.27;;
297;SDS011;133;49.626;9.680;2023-02-01T01:19:20;7.53;;;6.37;;
297;SDS011;133;49.626;9.680;2023-02-01T01:21:46;9.43;;;7.27;;
297;SDS011;133;49.626;9.680;2023-02-01T01:24:11;8.53;;;6.47;;
297;SDS011;133;49.626;9.680;2023-02-01T01:26:37;6.70;;;6.30;;
297;SDS011;133;49.626;9.680;2023-02-01T01:29:02;6.93;;;6.00;;
297;SDS011;133;49.626;9.680;2023-02-01T01:31:28;9.27;;;6.73;;
297;SDS011;133;49.626;9.680;2023-02-01T01:33:56;6.80;;;5.73;;
297;SDS011;133;49.626;9.680;2023-02-01T01:36:23;6.33;;;6.00;;
297;SDS011;133;49.626;9.680;2023-02-01T01:38:50;7.23;;;5.90;;
297;SDS011;133;49.626;9.680;2023-02-01T01:41:18;7.00;;;5.83;;
297;SDS011;133;49.626;9.680;2023-02-01T01:46:20;7.93;;;5.30;;
297;SDS011;133;49.626;9.680;2023-02-01T01:48:48;6.90;;;6.40;;
297;SDS011;133;49.626;9.680;2023-02-01T01:51:19;5.83;;;5.20;;
297;SDS011;133;49.626;9.680;2023-02-01T01:53:50;6.63;;;5.80;;
297;SDS011;133;49.626;9.680;2023-02-01T01:56:24;8.83;;;5.40;;
297;SDS011;133;49.626;9.680;2023-02-01T01:58:51;7.50;;;5.80;;
297;SDS011;133;49.626;9.680;2023-02-01T02:01:18;7.70;;;6.40;;
297;SDS011;133;49.626;9.680;2023-02-01T02:03:44;6.80;;;6.33;;
297;SDS011;133;49.626;9.680;2023-02-01T02:06:18;8.63;;;5.90;;
297;SDS011;133;49.626;9.680;2023-02-01T02:09:05;6.40;;;5.40;;
297;SDS011;133;49.626;9.680;2023-02-01T02:11:31;7.77;;;5.70;;
297;SDS011;133;49.626;9.680;2023-02-01T02:13:57;7.40;;;5.43;;
297;SDS011;133;49.626;9.680;2023-02-01T02:16:26;5.90;;;5.63;;
297;SDS011;133;49.626;9.680;2023-02-01T02:19:28;8.83;;;5.80;;
297;SDS011;133;49.626;9.680;2023-02-01T02:22:30;7.13;;;5.70;;
297;SDS011;133;49.626;9.680;2023-02-01T02:36:46;5.57;;;5.10;;
297;SDS011;133;49.626;9.680;2023-02-01T02:39:34;6.97;;;6.00;;
297;SDS011;133;49.626;9.680;2023-02-01T02:45:13;9.30;;;7.03;;
297;SDS011;133;49.626;9.680;2023-02-01T02:50:53;6.57;;;6.17;;
297;SDS011;133;49.626;9.680;2023-02-01T02:53:59;7.23;;;6.27;;
297;SDS011;133;49.626;9.680;2023-02-01T02:56:44;8.20;;;6.40;;
297;SDS011;133;49.626;9.680;2023-02-01T02:59:29;8.70;;;6.90;;
297;SDS011;133;49.626;9.680;2023-02-01T03:02:16;6.30;;;5.90;;
297;SDS011;133;49.626;9.680;2023-02-01T03:05:01;8.80;;;6.57;;
297;SDS011;133;49.626;9.680;2023-02-01T03:10:18;6.60;;;5.60;;
297;SDS011;133;49.626;9.680;2023-02-01T03:12:54;6.13;;;5.80;;
297;SDS011;133;49.626;9.680;2023-02-01T03:15:46;5.97;;;5.67;;
297;SDS011;133;49.626;9.680;2023-02-01T03:18:40;5.80;;;5.53;;
297;SDS011;133;49.626;9.680;2023-02-01T03:21:12;7.70;;;5.37;;
297;SDS011;133;49.626;9.680;2023-02-01T03:24:04;6.67;;;6.30;;
297;SDS011;133;49.626;9.680;2023-02-01T03:26:36;8.00;;;6.40;;
297;SDS011;133;49.626;9.680;2023-02-01T03:29:17;6.83;;;5.90;;
297;SDS011;133;49.626;9.680;2023-02-01T03:31:47;7.20;;;6.07;;
297;SDS011;133;49.626;9.680;2023-02-01T03:34:13;6.20;;;5.70;;
297;SDS011;133;49.626;9.680;2023-02-01T03:36:49;6.53;;;6.13;;
297;SDS011;133;49.626;9.680;2023-02-01T03:39:21;5.63;;;5.33;;
297;SDS011;133;49.626;9.680;2023-02-01T03:42:52;8.00;;;6.20;;
297;SDS011;133;49.626;9.680;2023-02-01T03:45:13;6.30;;;5.53;;
297;SDS011;133;49.626;9.680;2023-02-01T03:47:46;5.60;;;5.30;;
297;SDS011;133;49.626;9.680;2023-02-01T03:50:18;6.77;;;5.20;;
297;SDS011;133;49.626;9.680;2023-02-01T03:52:50;6.27;;;5.63;;
297;SDS011;133;49.626;9.680;2023-02-01T03:55:33;7.07;;;6.07;;
297;SDS011;133;49.626;9.680;2023-02-01T03:58:06;9.77;;;5.87;;
297;SDS011;133;49.626;9.680;2023-02-01T04:03:22;5.73;;;5.33;;
297;SDS011;133;49.626;9.680;2023-02-01T04:05:48;7.90;;;5.20;;
297;SDS011;133;49.626;9.680;2023-02-01T04:08:14;5.77;;;5.47;;
297;SDS011;133;49.626;9.680;2023-02-01T04:10:40;5.80;;;5.50;;
297;SDS011;133;49.626;9.680;2023-02-01T04:13:05;10.80;;;6.33;;
297;SDS011;133;49.626;9.680;2023-02-01T04:15:31;5.60;;;5.30;;
297;SDS011;133;49.626;9.680;2023-02-01T04:17:58;7.00;;;5.83;;
297;SDS011;133;49.626;9.680;2023-02-01T04:20:24;6.20;;;5.20;;
297;SDS011;133;49.626;9.680;2023-02-01T04:22:49;4.83;;;4.53;;
297;SDS011;133;49.626;9.680;2023-02-01T04:25:15;4.67;;;4.37;;
297;SDS011;133;49.626;9.680;2023-02-01T04:27:42;3.53;;;3.30;;
297;SDS011;133;49.626;9.680;2023-02-01T04:30:08;2.53;;;2.33;;
297;SDS011;133;49.626;9.680;2023-02-01T04:32:35;2.70;;;2.50;;
297;SDS011;133;49.626;9.680;2023-02-01T04:35:01;2.90;;;2.70;;
297;SDS011;133;49.626;9.680;2023-02-01T04:37:27;2.90;;;2.70;;
297;SDS011;133;49.626;9.680;2023-02-01T04:39:53;2.80;;;2.60;;
297;SDS011;133;49.626;9.680;2023-02-01T04:42:19;2.97;;;2.77;;
297;SDS011;133;49.626;9.680;2023-02-01T04:44:45;2.27;;;2.10;;
297;SDS011;133;49.626;9.680;2023-02-01T04:47:10;1.77;;;1.67;;
297;SDS011;133;49.626;9.680;2023-02-01T04:49:36;1.70;;;1.60;;
297;SDS011;133;49.626;9.680;2023-02-01T04:52:02;1.80;;;1.70;;
297;SDS011;133;49.626;9.680;2023-02-01T04:54:28;1.73;;;1.63;;
297;SDS011;133;49.626;9.680;2023-02-01T04:56:53;1.83;;;1.77;;
297;SDS011;133;49.626;9.680;2023-02-01T04:59:19;1.90;;;1.80;;
297;SDS011;133;49.626;9.680;2023-02-01T05:01:44;1.67;;;1.57;;
297;SDS011;133;49.626;9.680;2023-02-01T05:04:10;1.60;;;1.50;;
297;SDS011;133;49.626;9.680;2023-02-01T05:06:36;2.37;;;2.17;;
297;SDS011;133;49.626;9.680;2023-02-01T05:09:01;2.50;;;2.00;;
297;SDS011;133;49.626;9.680;2023-02-01T05:11:27;1.87;;;1.70;;
297;SDS011;133;49.626;9.680;2023-02-01T05:14:11;2.00;;;1.90;;
297;SDS011;133;49.626;9.680;2023-02-01T05:16:37;1.90;;;1.80;;
297;SDS011;133;49.626;9.680;2023-02-01T05:19:02;2.57;;;2.37;;
297;SDS011;133;49.626;9.680;2023-02-01T05:21:28;2.30;;;2.10;;
297;SDS011;133;49.626;9.680;2023-02-01T05:23:53;2.53;;;2.33;;
297;SDS011;133;49.626;9.680;2023-02-01T05:26:34;2.83;;;2.67;;
297;SDS011;133;49.626;9.680;2023-02-01T05:29:00;2.50;;;2.30;;
297;SDS011;133;49.626;9.680;2023-02-01T05:31:26;2.50;;;2.30;;
297;SDS011;133;49.626;9.680;2023-02-01T05:33:52;2.50;;;2.30;;
297;SDS011;133;49.626;9.680;2023-02-01T05:36:17;2.50;;;2.30;;
297;SDS011;133;49.626;9.680;2023-02-01T05:38:43;2.70;;;2.50;;
297;SDS011;133;49.626;9.680;2023-02-01T05:41:08;2.83;;;2.63;;
297;SDS011;133;49.626;9.680;2023-02-01T05:43:34;2.70;;;2.50;;
297;SDS011;133;49.626;9.680;2023-02-01T05:46:00;2.80;;;2.60;;
297;SDS011;133;49.626;9.680;2023-02-01T05:48:26;2.87;;;2.67;;
297;SDS011;133;49.626;9.680;2023-02-01T05:50:51;2.80;;;2.60;;
297;SDS011;133;49.626;9.680;2023-02-01T05:53:17;2.40;;;2.20;;
297;SDS011;133;49.626;9.680;2023-02-01T05:55:43;2.93;;;2.73;;
297;SDS011;133;49.626;9.680;2023-02-01T05:58:09;2.77;;;2.57;;
297;SDS011;133;49.626;9.680;2023-02-01T06:00:34;2.67;;;2.47;;
297;SDS011;133;49.626;9.680;2023-02-01T06:03:00;2.70;;;2.50;;
297;SDS011;133;49.626;9.680;2023-02-01T06:05:26;2.57;;;2.37;;
297;SDS011;133;49.626;9.680;2023-02-01T06:07:52;2.53;;;2.33;;
297;SDS011;133;49.626;9.680;2023-02-01T06:10:17;2.97;;;2.77;;
297;SDS011;133;49.626;9.680;2023-02-01T06:12:43;2.60;;;2.40;;
297;SDS011;133;49.626;9.680;2023-02-01T06:15:10;2.80;;;2.30;;
297;SDS011;133;49.626;9.680;2023-02-01T06:17:36;2.50;;;2.30;;
297;SDS011;133;49.626;9.680;2023-02-01T06:20:03;2.70;;;2.50;;
297;SDS011;133;49.626;9.680;2023-02-01T06:22:31;2.60;;;2.40;;
297;SDS011;133;49.626;9.680;2023-02-01T06:24:57;2.67;;;2.47;;
297;SDS011;133;49.626;9.680;2023-02-01T06:27:23;2.70;;;2.50;;
297;SDS011;133;49.626;9.680;2023-02-01T06:29:49;2.47;;;2.27;;
297;SDS011;133;49.626;9.680;2023-02-01T06:32:18;7.30;;;2.60;;
297;SDS011;133;49.626;9.680;2023-02-01T06:34:44;2.90;;;2.70;;
297;SDS011;133;49.626;9.680;2023-02-01T06:37:10;2.40;;;2.20;;
297;SDS011;133;49.626;9.680;2023-02-01T06:39:36;2.40;;;2.20;;
297;SDS011;133;49.626;9.680;2023-02-01T06:42:02;4.50;;;2.17;;
297;SDS011;133;49.626;9.680;2023-02-01T06:44:28;2.50;;;2.30;;
297;SDS011;133;49.626;9.680;2023-02-01T06:46:54;2.13;;;1.97;;
297;SDS011;133;49.626;9.680;2023-02-01T06:49:20;2.40;;;2.20;;
297;SDS011;133;49.626;9.680;2023-02-01T06:51:46;2.90;;;2.73;;
297;SDS011;133;49.626;9.680;2023-02-01T06:54:11;2.60;;;2.40;;
297;SDS011;133;49.626;9.680;2023-02-01T06:56:38;2.63;;;2.40;;
297;SDS011;133;49.626;9.680;2023-02-01T06:59:04;3.00;;;2.30;;
297;SDS011;133;49.626;9.680;2023-02-01T07:01:30;4.10;;;2.60;;
297;SDS011;133;49.626;9.680;2023-02-01T07:03:56;5.90;;;2.40;;
297;SDS011;133;49.626;9.680;2023-02-01T07:06:21;2.60;;;2.40;;
297;SDS011;133;49.626;9.680;2023-02-01T07:08:47;2.63;;;2.37;;
297;SDS011;133;49.626;9.680;2023-02-01T07:11:14;2.40;;;2.20;;
297;SDS011;133;49.626;9.680;2023-02-01T07:13:40;2.20;;;2.10;;
297;SDS011;133;49.626;9.680;2023-02-01T07:16:08;2.73;;;2.27;;
297;SDS011;133;49.626;9.680;2023-02-01T07:18:36;2.70;;;2.23;;
297;SDS011;133;49.626;9.680;2023-02-01T07:21:01;3.00;;;2.40;;
297;SDS011;133;49.626;9.680;2023-02-01T07:23:27;4.53;;;2.67;;
297;SDS011;133;49.626;9.680;2023-02-01T07:25:54;3.03;;;2.30;;
297;SDS011;133;49.626;9.680;2023-02-01T07:28:20;3.00;;;2.80;;
297;SDS011;133;49.626;9.680;2023-02-01T07:30:46;6.60;;;3.20;;
297;SDS011;133;49.626;9.680;2023-02-01T07:33:17;9.27;;;4.83;;
297;SDS011;133;49.626;9.680;2023-02-01T07:35:43;3.90;;;3.70;;
297;SDS011;133;49.626;9.680;2023-02-01T07:38:09;5.00;;;3.20;;
297;SDS011;133;49.626;9.680;2023-02-01T07:40:34;3.27;;;2.80;;
297;SDS011;133;49.626;9.680;2023-02-01T07:43:00;3.67;;;2.73;;
297;SDS011;133;49.626;9.680;2023-02-01T07:45:25;5.63;;;3.10;;
297;SDS011;133;49.626;9.680;2023-02-01T07:47:51;2.90;;;2.80;;
297;SDS011;133;49.626;9.680;2023-02-01T07:50:18;3.13;;;2.93;;
297;SDS011;133;49.626;9.680;2023-02-01T07:52:43;5.13;;;3.80;;
297;SDS011;133;49.626;9.680;2023-02-01T07:55:09;4.43;;;3.60;;
297;SDS011;133;49.626;9.680;2023-02-01T07:57:35;8.63;;;4.10;;
297;SDS011;133;49.626;9.680;2023-02-01T08:00:00;7.33;;;4.43;;
297;SDS011;133;49.626;9.680;2023-02-01T08:02:45;5.63;;;5.33;;
297;SDS011;133;49.626;9.680;2023-02-01T08:05:11;4.47;;;4.20;;
297;SDS011;133;49.626;9.680;2023-02-01T08:07:36;4.50;;;3.93;;
297;SDS011;133;49.626;9.680;2023-02-01T08:10:02;4.20;;;3.30;;
297;SDS011;133;49.626;9.680;2023-02-01T08:12:30;3.73;;;2.93;;
297;SDS011;133;49.626;9.680;2023-02-01T08:14:56;4.17;;;2.53;;
297;SDS011;133;49.626;9.680;2023-02-01T08:17:21;2.83;;;2.63;;
297;SDS011;133;49.626;9.680;2023-02-01T08:19:47;5.20;;;3.43;;
297;SDS011;133;49.626;9.680;2023-02-01T08:22:12;5.03;;;3.30;;
297;SDS011;133;49.626;9.680;2023-02-01T08:24:38;3.23;;;3.03;;
297;SDS011;133;49.626;9.680;2023-02-01T08:27:05;3.70;;;3.50;;
297;SDS011;133;49.626;9.680;2023-02-01T08:29:31;3.60;;;3.20;;
297;SDS011;133;49.626;9.680;2023-02-01T08:31:56;4.40;;;4.10;;
297;SDS011;133;49.626;9.680;2023-02-01T08:34:22;9.50;;;4.83;;
297;SDS011;133;49.626;9.680;2023-02-01T08:36:48;5.27;;;4.70;;
297;SDS011;133;49.626;9.680;2023-02-01T08:39:13;7.20;;;4.20;;
297;SDS011;133;49.626;9.680;2023-02-01T08:41:39;4.00;;;3.80;;
297;SDS011;133;49.626;9.680;2023-02-01T08:44:07;5.37;;;4.90;;
297;SDS011;133;49.626;9.680;2023-02-01T08:46:32;5.53;;;4.90;;
297;SDS011;133;49.626;9.680;2023-02-01T08:48:58;9.00;;;5.17;;
297;SDS011;133;49.626;9.680;2023-02-01T08:51:24;8.30;;;5.70;;
297;SDS011;133;49.626;9.680;2023-02-01T08:53:50;5.93;;;5.10;;
297;SDS011;133;49.626;9.680;2023-02-01T08:56:16;6.97;;;4.80;;
297;SDS011;133;49.626;9.680;2023-02-01T08:58:43;9.20;;;4.73;;
297;SDS011;133;49.626;9.680;2023-02-01T09:01:11;7.07;;;4.97;;
297;SDS011;133;49.626;9.680;2023-02-01T09:03:38;14.13;;;5.40;;
297;SDS011;133;49.626;9.680;2023-02-01T09:06:05;8.83;;;5.27;;
297;SDS011;133;49.626;9.680;2023-02-01T09:08:32;15.10;;;5.40;;
297;SDS011;133;49.626;9.680;2023-02-01T09:11:06;8.37;;;5.17;;
297;SDS011;133;49.626;9.680;2023-02-01T09:13:35;11.07;;;4.90;;
297;SDS011;133;49.626;9.680;2023-02-01T09:16:01;7.13;;;4.77;;
297;SDS011;133;49.626;9.680;2023-02-01T09:18:27;8.37;;;4.67;;
297;SDS011;133;49.626;9.680;2023-02-01T09:20:52;11.00;;;5.20;;
297;SDS011;133;49.626;9.680;2023-02-01T09:23:18;10.00;;;4.67;;
297;SDS011;133;49.626;9.680;2023-02-01T09:25:45;10.90;;;4.60;;
297;SDS011;133;49.626;9.680;2023-02-01T09:28:11;12.00;;;4.90;;
297;SDS011;133;49.626;9.680;2023-02-01T09:30:37;10.50;;;5.03;;
297;SDS011;133;49.626;9.680;2023-02-01T09:33:03;14.63;;;4.40;;
297;SDS011;133;49.626;9.680;2023-02-01T09:35:29;7.30;;;4.77;;
297;SDS011;133;49.626;9.680;2023-02-01T09:37:55;7.93;;;4.27;;
297;SDS011;133;49.626;9.680;2023-02-01T09:40:20;6.00;;;4.30;;
297;SDS011;133;49.626;9.680;2023-02-01T09:48:14;12.00;;;4.60;;
297;SDS011;133;49.626;9.680;2023-02-01T09:50:44;9.93;;;4.37;;
297;SDS011;133;49.626;9.680;2023-02-01T09:55:50;15.00;;;4.83;;
297;SDS011;133;49.626;9.680;2023-02-01T09:58:42;4.30;;;3.60;;
297;SDS011;133;49.626;9.680;2023-02-01T10:01:24;10.20;;;4.10;;
297;SDS011;133;49.626;9.680;2023-02-01T10:03:53;6.03;;;3.63;;
297;SDS011;133;49.626;9.680;2023-02-01T10:06:37;8.10;;;4.17;;
297;SDS011;133;49.626;9.680;2023-02-01T10:09:34;8.87;;;3.77;;
297;SDS011;133;49.626;9.680;2023-02-01T10:27:45;10.00;;;4.97;;
297;SDS011;133;49.626;9.680;2023-02-01T10:30:24;6.07;;;4.17;;
297;SDS011;133;49.626;9.680;2023-02-01T10:32:53;16.37;;;4.90;;
297;SDS011;133;49.626;9.680;2023-02-01T10:35:22;7.40;;;4.00;;
297;SDS011;133;49.626;9.680;2023-02-01T10:37:53;9.60;;;4.17;;
297;SDS011;133;49.626;9.680;2023-02-01T10:40:22;11.30;;;4.33;;
297;SDS011;133;49.626;9.680;2023-02-01T10:42:54;7.80;;;4.10;;
297;SDS011;133;49.626;9.680;2023-02-01T10:45:25;10.03;;;4.00;;
297;SDS011;133;49.626;9.680;2023-02-01T10:47:53;4.33;;;4.00;;
297;SDS011;133;49.626;9.680;2023-02-01T10:55:52;9.87;;;4.27;;
297;SDS011;133;49.626;9.680;2023-02-01T10:58:28;10.10;;;3.77;;
297;SDS011;133;49.626;9.680;2023-02-01T11:00:58;9.00;;;3.97;;
297;SDS011;133;49.626;9.680;2023-02-01T11:03:43;10.90;;;3.67;;
297;SDS011;133;49.626;9.680;2023-02-01T11:06:18;8.83;;;3.50;;
297;SDS011;133;49.626;9.680;2023-02-01T11:08:50;10.47;;;4.00;;
297;SDS011;133;49.626;9.680;2023-02-01T11:11:17;7.47;;;3.90;;
297;SDS011;133;49.626;9.680;2023-02-01T11:13:43;8.07;;;3.30;;
297;SDS011;133;49.626;9.680;2023-02-01T11:16:13;11.60;;;3.80;;
297;SDS011;133;49.626;9.680;2023-02-01T11:18:40;11.30;;;4.43;;
297;SDS011;133;49.626;9.680;2023-02-01T11:21:06;7.43;;;3.80;;
297;SDS011;133;49.626;9.680;2023-02-01T11:23:33;13.73;;;5.03;;
297;SDS011;133;49.626;9.680;2023-02-01T11:26:11;12.53;;;4.23;;
297;SDS011;133;49.626;9.680;2023-02-01T11:28:59;11.40;;;4.27;;
297;SDS011;133;49.626;9.680;2023-02-01T11:31:28;15.53;;;5.53;;
297;SDS011;133;49.626;9.680;2023-02-01T11:33:57;9.73;;;4.20;;
297;SDS011;133;49.626;9.680;2023-02-01T11:36:26;9.60;;;4.43;;
297;SDS011;133;49.626;9.680;2023-02-01T11:39:08;9.13;;;4.10;;
297;SDS011;133;49.626;9.680;2023-02-01T11:44:32;9.10;;;3.77;;
297;SDS011;133;49.626;9.680;2023-02-01T11:47:17;10.07;;;4.63;;
297;SDS011;133;49.626;9.680;2023-02-01T11:49:50;11.13;;;3.60;;
297;SDS011;133;49.626;9.680;2023-02-01T11:52:28;8.77;;;3.73;;
297;SDS011;133;49.626;9.680;2023-02-01T11:58:03;9.30;;;3.50;;
297;SDS011;133;49.626;9.680;2023-02-01T12:01:02;9.73;;;3.77;;
297;SDS011;133;49.626;9.680;2023-02-01T12:06:31;10.23;;;4.20;;
297;SDS011;133;49.626;9.680;2023-02-01T12:09:14;12.03;;;4.37;;
297;SDS011;133;49.626;9.680;2023-02-01T12:25:54;9.67;;;4.10;;
297;SDS011;133;49.626;9.680;2023-02-01T12:31:21;9.90;;;3.80;;
297;SDS011;133;49.626;9.680;2023-02-01T12:42:18;8.53;;;3.57;;
297;SDS011;133;49.626;9.680;2023-02-01T12:45:31;6.90;;;3.27;;
297;SDS011;133;49.626;9.680;2023-02-01T12:47:59;8.40;;;2.90;;
297;SDS011;133;49.626;9.680;2023-02-01T12:55:46;7.57;;;3.43;;
297;SDS011;133;49.626;9.680;2023-02-01T13:03:38;5.67;;;3.20;;
297;SDS011;133;49.626;9.680;2023-02-01T13:06:10;5.20;;;3.03;;
297;SDS011;133;49.626;9.680;2023-02-01T13:08:45;5.80;;;3.00;;
297;SDS011;133;49.626;9.680;2023-02-01T13:11:44;12.90;;;3.70;;
297;SDS011;133;49.626;9.680;2023-02-01T13:17:03;11.73;;;4.10;;
297;SDS011;133;49.626;9.680;2023-02-01T13:22:29;7.50;;;3.40;;
297;SDS011;133;49.626;9.680;2023-02-01T13:25:33;10.47;;;3.73;;
297;SDS011;133;49.626;9.680;2023-02-01T13:28:06;9.10;;;4.13;;
297;SDS011;133;49.626;9.680;2023-02-01T13:36:05;8.07;;;3.30;;
297;SDS011;133;49.626;9.680;2023-02-01T13:43:53;8.50;;;3.40;;
297;SDS011;133;49.626;9.680;2023-02-01T13:46:24;6.43;;;3.60;;
297;SDS011;133;49.626;9.680;2023-02-01T13:48:52;9.77;;;3.57;;
297;SDS011;133;49.626;9.680;2023-02-01T13:51:44;6.13;;;3.70;;
297;SDS011;133;49.626;9.680;2023-02-01T13:56:56;9.80;;;4.00;;
297;SDS011;133;49.626;9.680;2023-02-01T14:05:08;6.30;;;3.47;;
297;SDS011;133;49.626;9.680;2023-02-01T14:07:35;10.10;;;3.20;;
297;SDS011;133;49.626;9.680;2023-02-01T14:13:05;12.13;;;3.90;;
297;SDS011;133;49.626;9.680;2023-02-01T14:15:38;10.10;;;3.73;;
297;SDS011;133;49.626;9.680;2023-02-01T14:18:49;10.97;;;3.87;;
297;SDS011;133;49.626;9.680;2023-02-01T14:26:26;4.50;;;2.80;;
297;SDS011;133;49.626;9.680;2023-02-01T14:37:32;7.37;;;3.40;;
297;SDS011;133;49.626;9.680;2023-02-01T14:47:44;8.13;;;3.13;;
297;SDS011;133;49.626;9.680;2023-02-01T14:55:35;5.67;;;3.60;;
297;SDS011;133;49.626;9.680;2023-02-01T15:01:01;14.50;;;3.43;;
297;SDS011;133;49.626;9.680;2023-02-01T15:06:30;7.60;;;3.37;;
297;SDS011;133;49.626;9.680;2023-02-01T15:09:09;13.80;;;3.83;;
297;SDS011;133;49.626;9.680;2023-02-01T15:17:21;7.13;;;3.17;;
297;SDS011;133;49.626;9.680;2023-02-01T15:19:53;7.20;;;3.00;;
297;SDS011;133;49.626;9.680;2023-02-01T15:22:20;5.57;;;2.80;;
297;SDS011;133;49.626;9.680;2023-02-01T15:24:51;7.17;;;3.60;;
297;SDS011;133;49.626;9.680;2023-02-01T15:27:19;11.47;;;3.57;;
297;SDS011;133;49.626;9.680;2023-02-01T15:29:45;16.83;;;4.00;;
297;SDS011;133;49.626;9.680;2023-02-01T15:34:56;10.07;;;3.20;;
297;SDS011;133;49.626;9.680;2023-02-01T15:37:22;6.43;;;3.93;;
297;SDS011;133;49.626;9.680;2023-02-01T15:40:05;5.33;;;3.50;;
297;SDS011;133;49.626;9.680;2023-02-01T15:42:49;7.70;;;3.63;;
297;SDS011;133;49.626;9.680;2023-02-01T15:45:22;11.70;;;5.50;;
297;SDS011;133;49.626;9.680;2023-02-01T15:47:52;13.53;;;7.00;;
297;SDS011;133;49.626;9.680;2023-02-01T15:50:20;13.23;;;4.50;;
297;SDS011;133;49.626;9.680;2023-02-01T15:52:48;7.67;;;3.80;;
297;SDS011;133;49.626;9.680;2023-02-01T15:55:22;10.70;;;3.90;;
297;SDS011;133;49.626;9.680;2023-02-01T15:57:57;6.13;;;3.53;;
297;SDS011;133;49.626;9.680;2023-02-01T16:02:58;11.13;;;4.00;;
297;SDS011;133;49.626;9.680;2023-02-01T16:05:33;9.20;;;3.40;;
297;SDS011;133;49.626;9.680;2023-02-01T16:13:33;10.47;;;4.80;;
297;SDS011;133;49.626;9.680;2023-02-01T16:15:59;7.33;;;3.40;;
297;SDS011;133;49.626;9.680;2023-02-01T16:18:25;6.37;;;4.00;;
297;SDS011;133;49.626;9.680;2023-02-01T16:20:51;12.33;;;3.90;;
297;SDS011;133;49.626;9.680;2023-02-01T16:23:17;8.00;;;3.57;;
297;SDS011;133;49.626;9.680;2023-02-01T16:25:43;11.77;;;5.47;;
297;SDS011;133;49.626;9.680;2023-02-01T16:28:09;8.33;;;3.90;;
297;SDS011;133;49.626;9.680;2023-02-01T16:30:35;12.87;;;3.40;;
297;SDS011;133;49.626;9.680;2023-02-01T16:33:01;9.63;;;3.53;;
297;SDS011;133;49.626;9.680;2023-02-01T16:35:34;10.63;;;4.00;;
297;SDS011;133;49.626;9.680;2023-02-01T16:38:03;11.00;;;3.70;;
297;SDS011;133;49.626;9.680;2023-02-01T16:40:39;16.33;;;4.40;;
297;SDS011;133;49.626;9.680;2023-02-01T16:43:18;9.47;;;3.30;;
297;SDS011;133;49.626;9.680;2023-02-01T16:45:46;5.67;;;3.53;;
297;SDS011;133;49.626;9.680;2023-02-01T16:48:21;7.90;;;3.80;;
297;SDS011;133;49.626;9.680;2023-02-01T16:50:49;10.17;;;3.60;;
297;SDS011;133;49.626;9.680;2023-02-01T16:53:17;11.70;;;4.50;;
297;SDS011;133;49.626;9.680;2023-02-01T16:55:43;10.00;;;3.73;;
297;SDS011;133;49.626;9.680;2023-02-01T16:58:11;10.60;;;4.00;;
297;SDS011;133;49.626;9.680;2023-02-01T17:00:37;10.83;;;3.57;;
297;SDS011;133;49.626;9.680;2023-02-01T17:03:03;11.60;;;4.00;;
297;SDS011;133;49.626;9.680;2023-02-01T17:05:30;11.13;;;3.50;;
297;SDS011;133;49.626;9.680;2023-02-01T17:07:58;14.13;;;3.17;;
297;SDS011;133;49.626;9.680;2023-02-01T17:10:30;7.20;;;3.23;;
297;SDS011;133;49.626;9.680;2023-02-01T17:12:56;11.83;;;4.57;;
297;SDS011;133;49.626;9.680;2023-02-01T17:15:22;9.73;;;4.43;;
297;SDS011;133;49.626;9.680;2023-02-01T17:17:51;17.63;;;5.50;;
297;SDS011;133;49.626;9.680;2023-02-01T17:20:20;8.40;;;4.60;;
297;SDS011;133;49.626;9.680;2023-02-01T17:22:47;13.80;;;3.57;;
297;SDS011;133;49.626;9.680;2023-02-01T17:25:14;7.63;;;3.60;;
297;SDS011;133;49.626;9.680;2023-02-01T17:27:42;35.73;;;13.30;;
297;SDS011;133;49.626;9.680;2023-02-01T17:30:09;10.43;;;5.57;;
297;SDS011;133;49.626;9.680;2023-02-01T17:32:38;7.60;;;3.73;;
297;SDS011;133;49.626;9.680;2023-02-01T17:35:05;12.60;;;3.40;;
297;SDS011;133;49.626;9.680;2023-02-01T17:37:38;11.70;;;4.50;;
297;SDS011;133;49.626;9.680;2023-02-01T17:40:04;11.93;;;4.30;;
297;SDS011;133;49.626;9.680;2023-02-01T17:42:30;8.67;;;4.23;;
297;SDS011;133;49.626;9.680;2023-02-01T17:44:56;8.53;;;3.77;;
297;SDS011;133;49.626;9.680;2023-02-01T17:47:24;16.77;;;4.43;;
297;SDS011;133;49.626;9.680;2023-02-01T17:49:50;10.90;;;4.00;;
297;SDS011;133;49.626;9.680;2023-02-01T17:52:20;11.10;;;4.53;;
297;SDS011;133;49.626;9.680;2023-02-01T17:54:48;13.80;;;5.80;;
297;SDS011;133;49.626;9.680;2023-02-01T17:57:14;10.97;;;4.97;;
297;SDS011;133;49.626;9.680;2023-02-01T17:59:41;14.10;;;6.80;;
297;SDS011;133;49.626;9.680;2023-02-01T18:02:24;8.70;;;4.33;;
297;SDS011;133;49.626;9.680;2023-02-01T18:04:50;5.07;;;3.53;;
297;SDS011;133;49.626;9.680;2023-02-01T18:07:16;8.93;;;3.50;;
297;SDS011;133;49.626;9.680;2023-02-01T18:09:42;13.90;;;4.90;;
297;SDS011;133;49.626;9.680;2023-02-01T18:12:12;9.77;;;5.00;;
297;SDS011;133;49.626;9.680;2023-02-01T18:14:43;13.80;;;5.60;;
297;SDS011;133;49.626;9.680;2023-02-01T18:17:08;11.03;;;4.33;;
297;SDS011;133;49.626;9.680;2023-02-01T18:19:34;11.03;;;6.13;;
297;SDS011;133;49.626;9.680;2023-02-01T18:21:59;16.70;;;5.73;;
297;SDS011;133;49.626;9.680;2023-02-01T18:24:26;11.60;;;5.80;;
297;SDS011;133;49.626;9.680;2023-02-01T18:26:54;21.43;;;10.40;;
297;SDS011;133;49.626;9.680;2023-02-01T18:29:19;24.73;;;10.40;;
297;SDS011;133;49.626;9.680;2023-02-01T18:31:46;25.00;;;10.20;;
297;SDS011;133;49.626;9.680;2023-02-01T18:34:14;24.03;;;7.03;;
297;SDS011;133;49.626;9.680;2023-02-01T18:36:46;20.47;;;9.60;;
297;SDS011;133;49.626;9.680;2023-02-01T18:39:12;15.20;;;7.80;;
297;SDS011;133;49.626;9.680;2023-02-01T18:41:38;11.73;;;4.67;;
297;SDS011;133;49.626;9.680;2023-02-01T18:44:05;11.53;;;4.70;;
297;SDS011;133;49.626;9.680;2023-02-01T18:46:30;15.37;;;6.57;;
297;SDS011;133;49.626;9.680;2023-02-01T18:48:56;9.53;;;4.20;;
297;SDS011;133;49.626;9.680;2023-02-01T18:51:21;12.30;;;3.70;;
297;SDS011;133;49.626;9.680;2023-02-01T18:53:48;11.40;;;4.27;;
297;SDS011;133;49.626;9.680;2023-02-01T18:56:15;9.10;;;3.80;;